Time;durP1;ratioP1;P1;durP2;ratioP2;P2;SDS_P1;SDS_P2;PMS_P1;PMS_P2;Temp;Humidity;BMP_temperature;BMP_pressure;BME280_temperature;BME280_humidity;BME280_pressure;Samples;Min_cycle;Max_cycle;Signal;HPM_P1;HPM_P2
2022/07/17 00:00:43;;;;;;;4.53;2.28;;;11.60;99.90;;;;;;4987776;28;20049;-44
2022/07/17 00:03:14;;;;;;;7.32;3.58;;;11.50;99.90;;;;;;4969437;28;20476;-42
2022/07/17 00:05:40;;;;;;;3.42;2.40;;;11.50;99.90;;;;;;5001795;28;20088;-49
2022/07/17 00:08:07;;;;;;;4.60;2.30;;;11.50;99.90;;;;;;5001395;28;20535;-43
2022/07/17 00:10:39;;;;;;;3.55;2.10;;;11.50;99.90;;;;;;4984424;28;20432;-43
2022/07/17 00:13:05;;;;;;;7.57;2.72;;;11.50;99.90;;;;;;5002381;28;20135;-43
2022/07/17 00:15:31;;;;;;;3.35;2.20;;;11.40;99.90;;;;;;4984402;28;20050;-43
2022/07/17 00:17:58;;;;;;;3.95;1.90;;;11.40;99.90;;;;;;5001630;28;20629;-45
2022/07/17 00:20:25;;;;;;;2.90;1.95;;;11.40;99.90;;;;;;5001505;28;20073;-43
2022/07/17 00:22:52;;;;;;;4.30;1.95;;;11.40;99.90;;;;;;5000614;28;20049;-44
2022/07/17 00:25:18;;;;;;;3.25;2.00;;;11.40;99.90;;;;;;5001088;28;20176;-43
2022/07/17 00:27:44;;;;;;;5.70;2.60;;;11.40;99.90;;;;;;5001057;28;20058;-43
2022/07/17 00:30:10;;;;;;;5.20;2.30;;;11.40;99.90;;;;;;5001150;28;20085;-42
2022/07/17 00:32:36;;;;;;;5.45;2.67;;;11.40;99.90;;;;;;5000793;28;20488;-43
2022/07/17 00:35:02;;;;;;;5.22;2.40;;;11.40;99.90;;;;;;5001655;28;20054;-42
2022/07/17 00:37:27;;;;;;;5.22;2.80;;;11.40;99.90;;;;;;4981470;28;20053;-43
2022/07/17 00:39:54;;;;;;;7.03;3.10;;;11.30;99.90;;;;;;5000099;28;20049;-44
2022/07/17 00:42:19;;;;;;;6.13;2.97;;;11.30;99.90;;;;;;5000944;28;20451;-45
2022/07/17 00:44:45;;;;;;;5.82;2.60;;;11.30;99.90;;;;;;5001028;28;20046;-43
2022/07/17 00:47:18;;;;;;;4.10;2.50;;;11.30;99.90;;;;;;5000561;28;20042;-44
2022/07/17 00:49:44;;;;;;;;;;;11.20;99.90;;;;;;4969289;28;20137;-46
2022/07/17 00:52:12;;;;;;;6.00;2.97;;;11.20;99.90;;;;;;4988985;28;19925;-44
2022/07/17 00:54:39;;;;;;;6.60;3.58;;;11.20;99.90;;;;;;5020447;28;20053;-43
2022/07/17 00:57:13;;;;;;;5.43;3.05;;;11.20;99.90;;;;;;5020206;28;20168;-44
2022/07/17 00:59:40;;;;;;;5.22;2.60;;;11.10;99.90;;;;;;5013266;28;20046;-44
2022/07/17 01:02:08;;;;;;;5.07;2.70;;;11.10;99.90;;;;;;5010667;28;20157;-43
2022/07/17 01:04:35;;;;;;;3.97;2.38;;;11.10;99.90;;;;;;5001322;28;20421;-43
2022/07/17 01:07:03;;;;;;;4.50;2.40;;;11.00;99.90;;;;;;5001847;28;20427;-43
2022/07/17 01:09:29;;;;;;;6.15;2.78;;;11.00;99.90;;;;;;5006733;28;20699;-42
2022/07/17 01:11:56;;;;;;;5.40;2.38;;;11.00;99.90;;;;;;5021554;28;20060;-42
2022/07/17 01:14:23;;;;;;;4.00;3.17;;;11.00;99.90;;;;;;5024503;28;20465;-48
2022/07/17 01:16:50;;;;;;;5.60;2.90;;;11.00;99.90;;;;;;5021972;28;20266;-42
2022/07/17 01:19:16;;;;;;;6.43;2.38;;;10.90;99.90;;;;;;5003766;28;20111;-42
2022/07/17 01:21:45;;;;;;;4.68;2.58;;;10.90;99.90;;;;;;5018487;28;20053;-43
2022/07/17 01:24:11;;;;;;;2.63;2.13;;;10.90;99.90;;;;;;5020647;28;20049;-45
2022/07/17 01:26:41;;;;;;;4.03;2.20;;;10.90;99.90;;;;;;5020653;28;20500;-44
2022/07/17 01:29:10;;;;;;;3.25;2.28;;;10.90;99.90;;;;;;5020406;28;20033;-43
2022/07/17 01:31:36;;;;;;;3.15;2.10;;;10.80;99.90;;;;;;5005348;28;20049;-42
2022/07/17 01:34:04;;;;;;;4.78;2.38;;;10.80;99.90;;;;;;5000945;28;20050;-43
2022/07/17 01:36:38;;;;;;;3.67;2.28;;;10.80;99.90;;;;;;5010350;28;20053;-44
2022/07/17 01:39:05;;;;;;;6.15;2.47;;;10.80;99.90;;;;;;5019059;28;20510;-44
2022/07/17 01:41:30;;;;;;;2.90;2.05;;;10.80;99.90;;;;;;5018374;28;20053;-44
2022/07/17 01:43:57;;;;;;;3.67;2.03;;;10.80;99.90;;;;;;5015504;28;20056;-42
2022/07/17 01:46:23;;;;;;;2.90;2.08;;;10.80;99.90;;;;;;5020867;28;20041;-42
2022/07/17 01:48:48;;;;;;;4.65;2.20;;;10.80;99.90;;;;;;5019454;28;20369;-43
2022/07/17 01:51:14;;;;;;;7.20;2.08;;;10.80;99.90;;;;;;5001263;28;20060;-43
2022/07/17 01:53:40;;;;;;;5.55;2.10;;;10.80;99.90;;;;;;5006918;28;20069;-43
2022/07/17 01:56:06;;;;;;;5.38;2.40;;;10.80;99.90;;;;;;5019256;28;20132;-42
2022/07/17 01:58:32;;;;;;;6.35;2.50;;;10.80;99.90;;;;;;5022782;28;20171;-43
2022/07/17 02:00:58;;;;;;;5.10;2.95;;;10.70;99.90;;;;;;5005084;28;20515;-44
2022/07/17 02:03:24;;;;;;;4.68;2.03;;;10.70;99.90;;;;;;5005617;28;20038;-42
2022/07/17 02:05:49;;;;;;;3.95;2.20;;;10.70;99.90;;;;;;5004533;28;20516;-43
2022/07/17 02:08:15;;;;;;;4.35;2.50;;;10.70;99.90;;;;;;5006466;28;20653;-43
2022/07/17 02:10:41;;;;;;;4.55;2.45;;;10.70;99.90;;;;;;5004925;28;20477;-43
2022/07/17 02:13:07;;;;;;;4.95;2.50;;;10.70;99.90;;;;;;5003552;28;20548;-43
2022/07/17 02:15:32;;;;;;;2.80;2.03;;;10.70;99.90;;;;;;5022806;28;20061;-43
2022/07/17 02:17:58;;;;;;;3.90;2.17;;;10.70;99.90;;;;;;5025069;28;20146;-42
2022/07/17 02:20:24;;;;;;;4.28;1.98;;;10.70;99.90;;;;;;5023598;28;20108;-44
2022/07/17 02:22:50;;;;;;;3.40;2.00;;;10.70;99.90;;;;;;5024156;28;20068;-43
2022/07/17 02:25:16;;;;;;;3.63;1.83;;;10.70;99.90;;;;;;5019504;28;20083;-44
2022/07/17 02:27:42;;;;;;;4.53;2.20;;;10.60;99.90;;;;;;5027489;28;20041;-44
2022/07/17 02:30:12;;;;;;;3.38;1.98;;;10.60;99.90;;;;;;5007078;28;20507;-42
2022/07/17 02:32:38;;;;;;;4.78;2.30;;;10.60;99.90;;;;;;5004266;28;20497;-44
2022/07/17 02:35:06;;;;;;;3.75;2.10;;;10.60;99.90;;;;;;5004848;28;20048;-43
2022/07/17 02:37:32;;;;;;;4.20;2.30;;;10.50;99.90;;;;;;5019363;28;20057;-42
2022/07/17 02:39:58;;;;;;;3.88;2.30;;;10.60;99.90;;;;;;5016563;28;20057;-42
2022/07/17 02:42:27;;;;;;;3.33;2.15;;;10.60;99.90;;;;;;5004434;28;20060;-43
2022/07/17 02:44:54;;;;;;;5.28;2.00;;;10.50;99.90;;;;;;5014923;28;20497;-44
2022/07/17 02:47:31;;;;;;;4.72;1.95;;;10.40;99.90;;;;;;5019705;28;20049;-43
2022/07/17 02:49:58;;;;;;;4.32;1.83;;;10.40;99.90;;;;;;5014650;28;20484;-43
2022/07/17 02:52:24;;;;;;;2.75;1.80;;;10.40;99.90;;;;;;5018494;28;20309;-42
2022/07/17 02:55:08;;;;;;;3.45;2.10;;;10.30;99.90;;;;;;5004452;28;20119;-44
2022/07/17 02:57:34;;;;;;;5.43;1.80;;;10.30;99.90;;;;;;5001563;28;20493;-43
2022/07/17 02:59:59;;;;;;;4.43;2.20;;;10.30;99.90;;;;;;5110745;23;20414;-51
2022/07/17 03:02:25;;;;;;;6.10;2.33;;;10.30;99.90;;;;;;5013179;28;20057;-52
2022/07/17 03:04:51;;;;;;;6.32;2.47;;;10.30;99.90;;;;;;4988007;28;20057;-56
2022/07/17 03:07:17;;;;;;;4.05;2.80;;;10.20;99.90;;;;;;5008186;28;20399;-53
2022/07/17 03:09:42;;;;;;;4.85;2.70;;;10.30;99.90;;;;;;5009606;28;20096;-48
2022/07/17 03:12:08;;;;;;;4.53;3.03;;;10.20;99.90;;;;;;5010753;28;20045;-55
2022/07/17 03:14:34;;;;;;;3.20;2.08;;;10.20;99.90;;;;;;5023316;28;20046;-54
2022/07/17 03:16:59;;;;;;;5.80;1.92;;;10.20;99.90;;;;;;5016008;28;20046;-51
2022/07/17 03:19:25;;;;;;;5.05;2.10;;;10.20;99.90;;;;;;4999603;28;20054;-51
2022/07/17 03:21:50;;;;;;;4.28;2.20;;;10.20;99.90;;;;;;5022930;28;20053;-50
2022/07/17 03:24:16;;;;;;;5.05;2.47;;;10.20;99.90;;;;;;5023216;28;20045;-54
2022/07/17 03:26:42;;;;;;;3.08;2.00;;;10.20;99.90;;;;;;5023060;28;20123;-51
2022/07/17 03:29:08;;;;;;;4.38;2.17;;;10.10;99.90;;;;;;5020863;28;20042;-52
2022/07/17 03:31:33;;;;;;;6.82;2.10;;;10.10;99.90;;;;;;5017616;28;20060;-54
2022/07/17 03:33:59;;;;;;;4.28;2.90;;;10.20;99.90;;;;;;4995493;28;20453;-52
2022/07/17 03:36:25;;;;;;;4.82;3.00;;;10.20;99.90;;;;;;5022357;28;20571;-53
2022/07/17 03:38:51;;;;;;;5.90;2.85;;;10.30;99.90;;;;;;5022914;28;20060;-54
2022/07/17 03:41:17;;;;;;;5.70;2.53;;;10.30;99.90;;;;;;5021106;28;20041;-51
2022/07/17 03:43:42;;;;;;;4.65;2.70;;;10.40;99.90;;;;;;5023302;28;20052;-55
2022/07/17 03:46:09;;;;;;;5.32;3.08;;;10.40;99.90;;;;;;5004479;28;20164;-55
2022/07/17 03:48:36;;;;;;;3.25;2.35;;;10.50;99.90;;;;;;5023455;28;20049;-47
2022/07/17 03:51:02;;;;;;;3.30;2.50;;;10.40;99.90;;;;;;5015232;28;20551;-50
2022/07/17 03:53:27;;;;;;;4.22;2.50;;;10.50;99.90;;;;;;5003387;28;20054;-51
2022/07/17 03:55:53;;;;;;;4.43;2.53;;;10.50;99.90;;;;;;4985613;28;20060;-48
2022/07/17 03:58:19;;;;;;;4.85;2.70;;;10.60;99.90;;;;;;4994946;28;20046;-51
2022/07/17 04:00:44;;;;;;;4.68;2.28;;;10.60;99.90;;;;;;5003494;28;20053;-54
2022/07/17 04:03:10;;;;;;;4.80;2.92;;;10.70;99.90;;;;;;5022297;28;20050;-55
2022/07/17 04:05:36;;;;;;;5.35;3.13;;;10.70;99.90;;;;;;5005487;28;20536;-45
2022/07/17 04:08:01;;;;;;;4.78;2.63;;;10.70;99.90;;;;;;5012528;28;20575;-51
2022/07/17 04:10:27;;;;;;;4.38;2.85;;;10.70;99.90;;;;;;5012472;28;20564;-55
2022/07/17 04:12:53;;;;;;;9.65;3.10;;;10.70;99.90;;;;;;4986783;28;20567;-54
2022/07/17 04:15:48;;;;;;;7.72;3.45;;;10.80;99.90;;;;;;5006933;28;20056;-51
2022/07/17 04:18:08;;;;;;;6.30;3.53;;;10.80;99.90;;;;;;5003065;28;20742;-55
2022/07/17 04:20:33;;;;;;;3.30;2.70;;;10.90;99.90;;;;;;4986496;28;20111;-55
2022/07/17 04:22:59;;;;;;;4.00;2.78;;;11.00;99.90;;;;;;5002628;28;20485;-48
2022/07/17 04:25:25;;;;;;;6.20;3.80;;;11.10;99.90;;;;;;5003649;28;20657;-49
2022/07/17 04:27:50;;;;;;;8.07;3.58;;;11.10;99.90;;;;;;5003210;28;20501;-52
2022/07/17 04:30:16;;;;;;;7.20;4.05;;;11.20;99.90;;;;;;4986413;28;20091;-51
2022/07/17 04:32:42;;;;;;;6.13;3.70;;;11.30;99.90;;;;;;4998934;28;20061;-54
2022/07/17 04:35:08;;;;;;;7.63;3.83;;;11.30;99.90;;;;;;5003579;28;20077;-54
2022/07/17 04:37:33;;;;;;;7.30;3.92;;;11.40;99.90;;;;;;4984460;28;20049;-51
2022/07/17 04:39:59;;;;;;;4.28;3.17;;;11.40;99.90;;;;;;4989685;28;20106;-52
2022/07/17 04:42:25;;;;;;;9.45;4.05;;;11.50;99.90;;;;;;5021416;28;20064;-46
2022/07/17 04:44:50;;;;;;;4.50;3.30;;;11.50;99.90;;;;;;4989852;28;20062;-51
2022/07/17 04:47:16;;;;;;;6.82;3.97;;;11.50;99.90;;;;;;4983973;28;20124;-47
2022/07/17 04:49:42;;;;;;;4.95;3.88;;;11.60;99.90;;;;;;5001316;28;20539;-51
2022/07/17 04:52:07;;;;;;;6.95;3.80;;;11.70;99.90;;;;;;5001341;28;20500;-54
2022/07/17 04:54:33;;;;;;;4.97;3.75;;;11.70;99.90;;;;;;4983027;28;20050;-49
2022/07/17 04:56:58;;;;;;;4.07;3.67;;;11.80;99.90;;;;;;4986645;28;20061;-46
2022/07/17 04:59:24;;;;;;;7.85;3.92;;;11.90;99.90;;;;;;4995382;28;20491;-54
2022/07/17 05:01:50;;;;;;;8.95;4.20;;;11.90;99.90;;;;;;5001969;28;20050;-54
2022/07/17 05:04:16;;;;;;;9.15;4.20;;;12.00;99.90;;;;;;4970107;28;20530;-51
2022/07/17 05:06:41;;;;;;;8.25;4.15;;;12.00;99.90;;;;;;4985503;28;20686;-48
2022/07/17 05:09:07;;;;;;;6.45;4.38;;;12.10;99.90;;;;;;4986701;28;20068;-51
2022/07/17 05:11:33;;;;;;;8.30;4.50;;;12.20;99.90;;;;;;4982597;28;20061;-53
2022/07/17 05:13:59;;;;;;;8.95;4.50;;;12.20;99.90;;;;;;5002906;28;20111;-53
2022/07/17 05:16:24;;;;;;;7.70;4.60;;;12.30;99.90;;;;;;5013198;28;20135;-53
2022/07/17 05:18:50;;;;;;;10.35;6.70;;;12.30;99.90;;;;;;5006916;28;20049;-50
2022/07/17 05:21:16;;;;;;;12.20;7.47;;;12.40;99.90;;;;;;5017702;28;20057;-50
2022/07/17 05:23:41;;;;;;;12.15;7.38;;;12.60;99.90;;;;;;4998797;28;20065;-45
2022/07/17 05:26:10;;;;;;;8.80;6.97;;;12.60;99.90;;;;;;5003201;28;20049;-52
2022/07/17 05:28:36;;;;;;;13.10;8.00;;;12.70;99.90;;;;;;5005815;28;20053;-52
2022/07/17 05:31:02;;;;;;;9.13;7.68;;;12.80;99.90;;;;;;4986756;28;20524;-46
2022/07/17 05:33:27;;;;;;;9.60;7.40;;;12.80;99.90;;;;;;5003107;28;20395;-50
2022/07/17 05:35:53;;;;;;;11.40;6.35;;;12.90;99.90;;;;;;5008328;28;20133;-54
2022/07/17 05:38:20;;;;;;;10.30;6.95;;;13.00;99.90;;;;;;5013889;28;20049;-51
2022/07/17 05:40:45;;;;;;;11.73;6.13;;;13.00;99.90;;;;;;5019951;28;20045;-51
2022/07/17 05:43:11;;;;;;;6.38;5.25;;;13.20;99.90;;;;;;5015202;28;20388;-51
2022/07/17 05:45:38;;;;;;;7.57;5.40;;;13.30;99.90;;;;;;4982632;28;20460;-51
2022/07/17 05:48:06;;;;;;;9.45;5.38;;;13.60;99.90;;;;;;5001059;28;20497;-56
2022/07/17 05:50:32;;;;;;;9.32;4.88;;;14.00;99.90;;;;;;4965506;28;20066;-49
2022/07/17 05:52:57;;;;;;;9.23;4.22;;;15.00;99.90;;;;;;4982281;28;20108;-51
2022/07/17 05:55:23;;;;;;;6.78;3.47;;;17.00;99.90;;;;;;4983014;28;20570;-51
2022/07/17 05:57:50;;;;;;;8.88;2.90;;;18.80;99.90;;;;;;5005590;28;20063;-54
2022/07/17 06:00:16;;;;;;;5.50;2.70;;;20.10;99.90;;;;;;4983763;28;20084;-55
2022/07/17 06:02:42;;;;;;;4.47;2.75;;;20.40;99.90;;;;;;5000118;28;20475;-54
2022/07/17 06:05:08;;;;;;;5.95;3.15;;;20.50;99.90;;;;;;4999070;28;20096;-53
2022/07/17 06:07:34;;;;;;;6.63;2.65;;;20.60;99.90;;;;;;5000533;28;20042;-52
2022/07/17 06:10:00;;;;;;;6.75;2.67;;;21.30;99.90;;;;;;5013202;28;20415;-44
2022/07/17 06:12:25;;;;;;;7.43;2.50;;;22.40;99.90;;;;;;5017847;28;20041;-53
2022/07/17 06:14:51;;;;;;;4.45;2.50;;;22.90;99.90;;;;;;4989847;28;20074;-51
2022/07/17 06:17:16;;;;;;;7.97;2.60;;;22.50;99.40;;;;;;4982262;28;20161;-53
2022/07/17 06:19:42;;;;;;;6.25;2.78;;;22.20;99.60;;;;;;5000403;28;20046;-52
2022/07/17 06:22:08;;;;;;;8.40;2.58;;;22.90;98.60;;;;;;4999578;28;20053;-53
2022/07/17 06:24:33;;;;;;;5.60;2.97;;;23.80;98.00;;;;;;5000315;28;20406;-50
2022/07/17 06:26:59;;;;;;;5.47;2.30;;;25.10;96.90;;;;;;5000728;28;20049;-53
2022/07/17 06:29:26;;;;;;;5.63;1.90;;;26.20;95.30;;;;;;5000377;28;20456;-55
2022/07/17 06:31:51;;;;;;;5.43;1.80;;;27.00;93.30;;;;;;5016625;28;20442;-53
2022/07/17 06:34:17;;;;;;;4.85;1.60;;;27.70;92.10;;;;;;5019858;28;20056;-55
2022/07/17 06:36:43;;;;;;;4.65;2.00;;;28.30;91.50;;;;;;5020498;28;20944;-52
2022/07/17 06:39:12;;;;;;;6.90;1.90;;;28.90;90.40;;;;;;5021618;28;20045;-53
2022/07/17 06:41:38;;;;;;;7.90;1.92;;;28.40;88.60;;;;;;5014918;28;20099;-51
2022/07/17 06:44:03;;;;;;;7.30;2.20;;;27.60;90.20;;;;;;5001682;28;20053;-53
2022/07/17 06:46:29;;;;;;;7.82;2.22;;;27.70;90.20;;;;;;5009867;28;20073;-53
2022/07/17 06:48:55;;;;;;;4.03;1.50;;;28.10;89.90;;;;;;5020533;28;20433;-54
2022/07/17 06:51:20;;;;;;;5.78;1.77;;;28.40;89.10;;;;;;5022280;28;20049;-52
2022/07/17 06:53:46;;;;;;;6.43;1.85;;;28.80;87.00;;;;;;5009440;28;20506;-49
2022/07/17 06:56:12;;;;;;;4.18;1.60;;;29.20;87.40;;;;;;5022589;28;20492;-55
2022/07/17 06:58:38;;;;;;;5.47;1.77;;;29.50;86.30;;;;;;5020866;28;20049;-52
2022/07/17 07:01:03;;;;;;;4.13;1.55;;;30.10;84.30;;;;;;5003451;28;20042;-54
2022/07/17 07:03:29;;;;;;;4.93;1.45;;;29.70;84.00;;;;;;5016651;28;20042;-50
2022/07/17 07:05:55;;;;;;;6.85;2.58;;;28.50;83.90;;;;;;5004441;28;20677;-49
2022/07/17 07:08:21;;;;;;;7.20;1.60;;;27.30;85.50;;;;;;4988365;28;20128;-50
2022/07/17 07:10:46;;;;;;;3.67;1.38;;;26.20;86.70;;;;;;5014776;28;20475;-55
2022/07/17 07:13:13;;;;;;;7.18;1.92;;;25.20;87.20;;;;;;5019283;28;20084;-54
2022/07/17 07:15:39;;;;;;;5.15;1.50;;;24.50;89.40;;;;;;5022473;28;20061;-55
2022/07/17 07:18:04;;;;;;;4.95;1.50;;;23.80;90.20;;;;;;5023129;28;20103;-54
2022/07/17 07:20:30;;;;;;;4.35;1.50;;;23.30;90.50;;;;;;5005947;28;20042;-52
2022/07/17 07:22:56;;;;;;;6.30;1.75;;;23.10;90.90;;;;;;5003853;28;20046;-56
2022/07/17 07:25:21;;;;;;;5.20;1.75;;;22.90;91.30;;;;;;5003016;28;20050;-56
2022/07/17 07:27:47;;;;;;;5.28;1.67;;;22.90;91.70;;;;;;4985937;28;20054;-56
2022/07/17 07:30:13;;;;;;;6.57;1.73;;;22.90;92.00;;;;;;5004520;28;20058;-57
2022/07/17 07:32:40;;;;;;;5.15;1.50;;;22.90;91.70;;;;;;5009730;28;20464;-57
2022/07/17 07:35:07;;;;;;;8.15;1.90;;;23.10;91.50;;;;;;5012414;28;20061;-50
2022/07/17 07:37:33;;;;;;;5.40;2.25;;;23.40;91.70;;;;;;5004842;28;20049;-52
2022/07/17 07:39:59;;;;;;;5.25;1.80;;;23.80;91.80;;;;;;5022320;28;20045;-56
2022/07/17 07:42:25;;;;;;;5.75;1.25;;;24.00;91.00;;;;;;5020947;28;20570;-54
2022/07/17 07:44:51;;;;;;;4.90;1.85;;;24.30;91.00;;;;;;5015452;28;20589;-52
2022/07/17 07:47:17;;;;;;;6.20;1.85;;;24.50;90.90;;;;;;4991328;28;20088;-51
2022/07/17 07:49:43;;;;;;;9.15;1.85;;;24.50;90.70;;;;;;5002687;28;20058;-55
2022/07/17 07:52:14;;;;;;;5.75;1.85;;;24.70;91.00;;;;;;5002803;28;20129;-54
2022/07/17 07:54:40;;;;;;;3.67;1.33;;;24.60;90.60;;;;;;5002358;28;20045;-54
2022/07/17 07:57:06;;;;;;;4.85;1.52;;;24.50;90.90;;;;;;4998637;28;20057;-53
2022/07/17 07:59:32;;;;;;;4.25;1.77;;;24.40;90.90;;;;;;4999947;28;20066;-54
2022/07/17 08:01:59;;;;;;;7.78;2.40;;;24.30;90.50;;;;;;5017477;28;20049;-55
2022/07/17 08:04:24;;;;;;;4.85;1.70;;;24.40;90.80;;;;;;5015945;28;20062;-56
2022/07/17 08:06:50;;;;;;;6.78;1.83;;;24.30;91.60;;;;;;4992957;28;20053;-48
2022/07/17 08:09:16;;;;;;;6.15;1.50;;;24.40;91.00;;;;;;5013119;28;20808;-53
2022/07/17 08:11:42;;;;;;;5.80;1.60;;;24.40;90.80;;;;;;5003562;28;20636;-54
2022/07/17 08:14:09;;;;;;;6.03;1.58;;;24.10;90.70;;;;;;5004325;28;20512;-55
2022/07/17 08:16:35;;;;;;;8.00;1.98;;;24.10;91.00;;;;;;5004010;28;20050;-56
2022/07/17 08:19:01;;;;;;;4.57;1.50;;;24.20;91.60;;;;;;4985794;28;20058;-55
2022/07/17 08:21:28;;;;;;;4.90;1.77;;;24.30;91.40;;;;;;5003137;28;20125;-54
2022/07/17 08:23:54;;;;;;;7.90;1.63;;;24.30;91.00;;;;;;5003938;28;20049;-56
2022/07/17 08:26:20;;;;;;;6.13;1.65;;;24.20;91.30;;;;;;4986349;28;20062;-54
2022/07/17 08:28:55;;;;;;;6.78;1.50;;;24.00;91.40;;;;;;5005448;28;20153;-52
2022/07/17 08:31:22;;;;;;;4.32;1.35;;;23.80;91.70;;;;;;5007889;28;20076;-55
2022/07/17 08:33:54;;;;;;;6.47;1.30;;;24.00;92.00;;;;;;4988288;28;20061;-53
2022/07/17 08:36:20;;;;;;;6.78;1.83;;;24.10;91.20;;;;;;5004445;28;20508;-51
2022/07/17 08:38:46;;;;;;;7.30;1.90;;;24.00;91.20;;;;;;5005956;28;20191;-54
2022/07/17 08:41:16;;;;;;;3.53;1.20;;;24.00;91.60;;;;;;5007596;28;20049;-53
2022/07/17 08:43:43;;;;;;;4.22;1.48;;;23.90;91.90;;;;;;5007650;28;20585;-55
2022/07/17 08:46:13;;;;;;;6.05;1.77;;;24.00;91.50;;;;;;5006807;28;20117;-56
2022/07/17 08:48:41;;;;;;;4.38;1.55;;;23.90;91.70;;;;;;4989416;28;20053;-55
2022/07/17 08:51:09;;;;;;;6.13;1.92;;;24.00;92.00;;;;;;5007126;28;20470;-54
2022/07/17 08:53:35;;;;;;;4.88;1.63;;;24.00;92.30;;;;;;5026153;28;20133;-53
2022/07/17 08:56:01;;;;;;;5.18;1.63;;;24.00;91.90;;;;;;5002616;28;20145;-55
2022/07/17 08:58:27;;;;;;;4.97;1.50;;;24.00;92.20;;;;;;5019771;28;20115;-55
2022/07/17 09:00:53;;;;;;;7.35;1.95;;;24.10;92.20;;;;;;4993937;28;20064;-53
2022/07/17 09:03:19;;;;;;;5.88;1.40;;;23.90;92.00;;;;;;5006816;28;20038;-56
2022/07/17 09:05:46;;;;;;;6.00;1.70;;;23.80;91.70;;;;;;5005768;28;20057;-54
2022/07/17 09:08:21;;;;;;;5.07;1.70;;;24.00;92.00;;;;;;5006502;28;20045;-56
2022/07/17 09:10:49;;;;;;;6.00;1.95;;;24.00;91.70;;;;;;5011865;28;20049;-55
2022/07/17 09:13:22;;;;;;;13.82;2.70;;;24.30;92.10;;;;;;5024428;28;20049;-56
2022/07/17 09:15:53;;;;;;;6.30;1.83;;;24.30;91.80;;;;;;5008112;28;20136;-54
2022/07/17 09:18:20;;;;;;;6.20;1.77;;;24.30;91.50;;;;;;5025143;28;20053;-54
2022/07/17 09:20:50;;;;;;;5.00;2.05;;;24.30;91.40;;;;;;5004165;28;20583;-53
2022/07/17 09:23:19;;;;;;;7.32;1.85;;;24.40;91.00;;;;;;5005039;28;20089;-53
2022/07/17 09:25:48;;;;;;;5.40;1.65;;;24.20;90.70;;;;;;5006245;28;20057;-57
2022/07/17 09:28:16;;;;;;;8.85;2.00;;;24.20;91.10;;;;;;5008297;28;20050;-55
2022/07/17 09:30:45;;;;;;;5.05;1.73;;;24.10;90.50;;;;;;4995930;28;20049;-55
2022/07/17 09:33:17;;;;;;;6.25;1.90;;;24.10;90.80;;;;;;5000646;28;20508;-54
2022/07/17 09:35:49;;;;;;;7.93;2.10;;;23.80;90.70;;;;;;5025207;28;20096;-57
2022/07/17 09:38:33;;;;;;;4.43;1.60;;;23.80;90.80;;;;;;5024611;28;20508;-55
2022/07/17 09:41:11;;;;;;;6.03;1.73;;;23.90;91.40;;;;;;5024867;28;20034;-56
2022/07/17 09:43:46;;;;;;;6.05;1.63;;;23.90;90.80;;;;;;5008677;28;20119;-54
2022/07/17 09:46:18;;;;;;;4.30;1.70;;;24.00;91.00;;;;;;5005097;28;20054;-56
2022/07/17 09:48:47;;;;;;;3.33;1.70;;;24.10;91.10;;;;;;5005549;28;20049;-54
2022/07/17 09:51:27;;;;;;;4.68;1.80;;;24.00;90.30;;;;;;4987704;28;20134;-56
2022/07/17 09:53:56;;;;;;;6.70;1.92;;;24.00;90.30;;;;;;4988273;28;20139;-57
2022/07/17 09:56:24;;;;;;;4.63;1.90;;;24.00;91.10;;;;;;5005252;28;20052;-56
2022/07/17 09:58:52;;;;;;;5.93;1.98;;;24.20;91.70;;;;;;4996520;28;20157;-54
2022/07/17 10:01:19;;;;;;;7.13;1.70;;;24.10;91.60;;;;;;4985609;28;20096;-55
2022/07/17 10:03:48;;;;;;;4.80;1.63;;;24.20;91.50;;;;;;4986339;28;20100;-54
2022/07/17 10:06:15;;;;;;;7.10;1.92;;;24.20;90.90;;;;;;4967944;28;20100;-56
2022/07/17 10:08:42;;;;;;;5.28;1.90;;;24.10;91.60;;;;;;4992138;28;20046;-54
2022/07/17 10:11:09;;;;;;;3.25;1.55;;;24.10;91.80;;;;;;4967592;28;20053;-57
2022/07/17 10:13:39;;;;;;;4.20;2.30;;;24.30;91.30;;;;;;4977896;28;20065;-57
2022/07/17 10:16:07;;;;;;;6.18;2.58;;;24.40;91.00;;;;;;4999217;28;20057;-56
2022/07/17 10:18:45;;;;;;;3.22;1.50;;;24.30;91.00;;;;;;5000061;28;20037;-56
2022/07/17 10:21:18;;;;;;;5.85;1.63;;;24.40;90.70;;;;;;4997690;28;20042;-57
2022/07/17 10:24:07;;;;;;;3.50;1.60;;;24.40;91.50;;;;;;4982241;28;20539;-55
2022/07/17 10:26:37;;;;;;;3.05;1.58;;;24.40;90.90;;;;;;5000132;28;20436;-55
2022/07/17 10:29:07;;;;;;;3.05;1.30;;;24.50;91.20;;;;;;4985020;28;20060;-55
2022/07/17 10:31:34;;;;;;;7.63;1.73;;;24.60;91.90;;;;;;5000963;28;20116;-53
2022/07/17 10:34:04;;;;;;;4.43;2.00;;;24.70;91.30;;;;;;5001277;28;20054;-55
2022/07/17 10:36:43;;;;;;;3.50;1.50;;;24.80;91.10;;;;;;5005692;28;20053;-55
2022/07/17 10:39:16;;;;;;;5.63;1.85;;;24.90;91.00;;;;;;5006793;28;20385;-54
2022/07/17 10:41:54;;;;;;;6.03;1.90;;;24.90;90.40;;;;;;5000400;28;20046;-57
2022/07/17 10:44:31;;;;;;;3.33;1.25;;;24.80;89.70;;;;;;5000040;28;20049;-52
2022/07/17 10:47:01;;;;;;;4.68;1.80;;;24.80;90.40;;;;;;5003021;28;20050;-54
2022/07/17 10:49:31;;;;;;;4.88;2.17;;;25.00;91.50;;;;;;4999142;28;20054;-54
2022/07/17 10:52:01;;;;;;;4.22;1.73;;;25.00;90.70;;;;;;4986481;28;20046;-55
2022/07/17 10:54:37;;;;;;;4.45;1.33;;;25.10;90.90;;;;;;4997790;28;20047;-51
2022/07/17 10:57:04;;;;;;;4.38;1.80;;;25.20;91.10;;;;;;5000004;28;20136;-57
2022/07/17 10:59:30;;;;;;;5.22;1.75;;;25.10;91.10;;;;;;4987318;28;20111;-56
2022/07/17 11:01:57;;;;;;;4.45;2.00;;;24.90;91.20;;;;;;5020529;28;20054;-56
2022/07/17 11:04:23;;;;;;;5.97;1.90;;;24.90;90.70;;;;;;5020488;28;20049;-52
2022/07/17 11:06:50;;;;;;;4.72;1.67;;;24.90;90.30;;;;;;5017233;28;20084;-56
2022/07/17 11:09:17;;;;;;;5.13;2.00;;;24.90;89.90;;;;;;5020940;28;20049;-54
2022/07/17 11:11:52;;;;;;;4.10;1.60;;;24.80;89.90;;;;;;5025064;28;20045;-54
2022/07/17 11:14:18;;;;;;;5.72;1.85;;;24.90;89.80;;;;;;5021099;28;20060;-56
2022/07/17 11:17:04;;;;;;;5.20;1.92;;;24.90;90.10;;;;;;5021482;28;20045;-57
2022/07/17 11:19:38;;;;;;;5.68;1.75;;;25.00;90.20;;;;;;5018674;28;20136;-55
2022/07/17 11:22:06;;;;;;;5.38;2.08;;;25.00;90.80;;;;;;5017495;28;20041;-55
2022/07/17 11:25:08;;;;;;;4.93;2.83;;;25.00;89.10;;;;;;5045341;23;20067;-43
2022/07/17 11:27:42;;;;;;;3.13;1.80;;;24.90;88.00;;;;;;4982386;28;20054;-42
2022/07/17 11:30:13;;;;;;;3.58;1.92;;;24.70;88.60;;;;;;5008470;28;20605;-42
2022/07/17 11:32:42;;;;;;;3.80;1.90;;;24.70;89.10;;;;;;5008258;28;20053;-42
2022/07/17 11:35:16;;;;;;;6.75;2.03;;;24.70;89.30;;;;;;5009305;28;20131;-44
2022/07/17 11:37:43;;;;;;;3.63;1.80;;;24.90;90.30;;;;;;5004833;28;20496;-45
2022/07/17 11:40:09;;;;;;;3.97;2.42;;;25.00;91.10;;;;;;5014411;28;20052;-49
2022/07/17 11:42:35;;;;;;;4.60;2.10;;;25.10;90.90;;;;;;5023590;28;20041;-52
2022/07/17 11:45:02;;;;;;;5.13;2.38;;;25.10;90.30;;;;;;5018767;28;20215;-45
2022/07/17 11:47:29;;;;;;;4.28;1.95;;;25.10;90.10;;;;;;5020227;28;20060;-44
2022/07/17 11:50:15;;;;;;;5.57;2.10;;;25.20;90.80;;;;;;5019192;28;20049;-49
2022/07/17 11:52:58;;;;;;;2.08;1.60;;;25.10;90.50;;;;;;5007575;28;20057;-46
2022/07/17 11:55:36;;;;;;;4.75;2.47;;;25.10;91.80;;;;;;5015511;28;20053;-46
2022/07/17 11:58:02;;;;;;;6.43;2.30;;;25.10;90.10;;;;;;5021295;28;20096;-46
2022/07/17 12:00:28;;;;;;;6.70;2.47;;;25.20;91.90;;;;;;5016008;28;20128;-48
2022/07/17 12:03:01;;;;;;;5.57;2.45;;;25.30;90.60;;;;;;5014256;28;20050;-50
2022/07/17 12:05:28;;;;;;;3.55;2.40;;;25.30;90.30;;;;;;5027955;28;20046;-50
2022/07/17 12:08:01;;;;;;;4.90;2.63;;;25.30;90.10;;;;;;5001161;28;20053;-45
2022/07/17 12:10:29;;;;;;;4.97;2.47;;;25.10;90.30;;;;;;5018568;28;20042;-50
2022/07/17 12:13:16;;;;;;;6.10;2.90;;;25.00;90.20;;;;;;5013474;28;20049;-49
2022/07/17 12:15:45;;;;;;;6.40;2.70;;;25.00;90.00;;;;;;4998800;28;20056;-43
2022/07/17 12:18:24;;;;;;;4.68;2.50;;;24.90;90.20;;;;;;5011696;28;20407;-45
2022/07/17 12:20:53;;;;;;;5.68;2.15;;;24.90;90.90;;;;;;5011060;28;20269;-49
2022/07/17 12:23:31;;;;;;;5.38;2.67;;;25.10;92.50;;;;;;5007544;28;20050;-43
2022/07/17 12:26:23;;;;;;;4.65;2.83;;;25.30;91.70;;;;;;5013594;28;20177;-48
2022/07/17 12:28:49;;;;;;;5.60;2.50;;;25.50;91.60;;;;;;5005718;28;20061;-48
2022/07/17 12:31:16;;;;;;;4.30;3.17;;;25.60;91.00;;;;;;4990356;28;20061;-49
2022/07/17 12:33:43;;;;;;;5.10;2.65;;;25.60;90.50;;;;;;5013587;28;20060;-48
2022/07/17 12:36:09;;;;;;;4.43;2.95;;;25.60;89.60;;;;;;5016124;28;20408;-52
2022/07/17 12:38:36;;;;;;;5.10;2.75;;;25.50;89.80;;;;;;4994808;28;20104;-45
2022/07/17 12:41:04;;;;;;;4.05;2.47;;;25.60;91.50;;;;;;4999890;28;20396;-47
2022/07/17 12:43:31;;;;;;;5.97;3.20;;;25.70;90.90;;;;;;5015778;28;20088;-48
2022/07/17 12:45:57;;;;;;;5.13;3.35;;;25.60;90.00;;;;;;5017823;28;20045;-47
2022/07/17 12:48:22;;;;;;;4.13;3.08;;;25.60;90.50;;;;;;5012535;28;20053;-48
2022/07/17 12:50:49;;;;;;;5.57;2.83;;;25.50;90.20;;;;;;5013711;28;20491;-48